• Join FlightAware (Why Join?)
  • Login
  • US Flag 
02:30AM EDT


 

Airport Tracker/Info


-or-


 

Live Flight TrackerFlight Track Log ✈ AAL532 ✈ 08-May-2013 ✈ KORD - KDCA

Flight Track Log - Related Links

Times and Time Zones

All times are in EDT time to prevent confusion due to time zone crossing. See the AAL532 flight status page for this flight to view local times or setup timezone preferences in your user account.

Time Position Orientation Groundspeed Altitude Reporting Facility
EDT Latitude Longitude Course Direction KTS MPH feet Rate Location/Type
11:35PM 41.9850 -87.8590 85° East 161 185 2,200  Level FlightAware
11:35PM 41.9850 -87.8410 90° East 189 217 2,500 1,560 Climbing FlightAware
11:36PM 41.9870 -87.8020 86° East 228 262 3,400 1,800 Climbing FlightAware
11:36PM 41.9880 -87.7630 88° East 263 303 4,200 2,460 Climbing FlightAware
11:37PM 41.9860 -87.7140 93° East 276 318 5,700 3,120 Climbing FlightAware
11:37PM 41.9830 -87.6690 95° East 287 330 7,100 3,360 Climbing FlightAware
11:38PM 41.9800 -87.6140 94° East 297 342 8,800 3,480 Climbing FlightAware
11:38PM 41.9750 -87.5420 95° East 303 349 11,200 3,840 Climbing FlightAware
11:39PM 41.9700 -87.4520 94° East 310 357 14,300 3,660 Climbing FlightAware
11:40PM 41.9650 -87.3770 95° East 329 379 16,400 2,460 Climbing FlightAware
11:40PM 41.9490 -87.2870 103° East 378 435 17,600 1,740 Climbing FlightAware
11:41PM 41.9240 -87.1850 108° East 421 484 18,900 2,400 Climbing FlightAware
11:42PM 41.8980 -87.0780 108° East 433 498 21,000 2,700 Climbing FlightAware
11:43PM 41.8710 -86.9680 108° East 445 512 22,800 2,400 Climbing FlightAware
11:43PM 41.8330 -86.8690 117° Southeast 454 522 24,400 2,280 Climbing FlightAware
11:44PM 41.7880 -86.7690 121° Southeast 466 536 25,900 1,920 Climbing FlightAware
11:45PM 41.7520 -86.6480 112° Southeast 479 551 27,200 1,800 Climbing FlightAware
11:45PM 41.7530 -86.5590 89° East 482 555 28,200 2,160 Climbing FlightAware
11:46PM 41.7500 -86.4140 92° East 478 550 30,100 2,160 Climbing FlightAware
11:47PM 41.7440 -86.2800 93° East 477 549 31,700 1,920 Climbing FlightAware
11:47PM 41.7380 -86.1580 94° East 480 552 32,900 1,680 Climbing FlightAware
11:48PM 41.7320 -86.0300 94° East 484 557 34,100 1,740 Climbing FlightAware
11:49PM 41.7270 -85.9340 94° East 482 555 35,100 1,860 Climbing FlightAware
11:50PM 41.7200 -85.7880 94° East 475 547 36,600 1,800 Climbing FlightAware
11:50PM 41.7130 -85.6530 94° East 469 540 38,000 1,440 Climbing FlightAware
11:51PM 41.7080 -85.5390 93° East 470 541 38,700 960 Climbing FlightAware
11:52PM 41.7010 -85.4130 94° East 475 547 39,400 900 Climbing FlightAware
11:52PM 41.6950 -85.2920 94° East 476 548 40,000 840 Climbing FlightAware
11:53PM 41.6880 -85.1610 94° East 480 552 40,600 660 Climbing FlightAware
11:54PM 41.6810 -85.0410 94° East 480 552 41,000 300 Climbing FlightAware
11:54PM 41.6750 -84.9280 94° East 479 551 41,000  Level FlightAware
11:55PM 41.6690 -84.8130 94° East 475 547 41,000  Level FlightAware
11:56PM 41.6620 -84.6760 94° East 475 547 41,000  Level FlightAware
11:57PM 41.6570 -84.5420 93° East 476 548 41,000  Level FlightAware
11:57PM 41.6520 -84.4250 93° East 476 548 41,000  Level FlightAware
11:58PM 41.6310 -84.3180 105° East 478 550 41,000  Level FlightAware
11:59PM 41.5920 -84.2330 122° Southeast 479 551 41,000  Level FlightAware
11:59PM 41.5280 -84.1010 123° Southeast 480 552 41,000  Level FlightAware
12:00AM 41.4780 -83.9970 123° Southeast 481 554 41,000  Level FlightAware
12:01AM 41.4260 -83.8910 123° Southeast 482 555 41,000  Level FlightAware
12:01AM 41.3790 -83.7950 123° Southeast 482 555 41,000  Level FlightAware
12:02AM 41.3200 -83.6760 123° Southeast 483 556 41,000  Level FlightAware
12:03AM 41.2710 -83.5770 123° Southeast 483 556 41,000  Level FlightAware
12:04AM 41.2170 -83.4670 123° Southeast 485 558 41,000  Level FlightAware
12:04AM 41.1680 -83.3690 124° Southeast 486 559 41,000  Level FlightAware
12:05AM 41.1180 -83.2700 124° Southeast 486 559 41,000  Level FlightAware
12:06AM 41.0630 -83.1600 124° Southeast 485 558 41,000  Level FlightAware
12:06AM 41.0140 -83.0630 124° Southeast 485 558 41,000  Level FlightAware
12:07AM 40.9590 -82.9530 123° Southeast 484 557 41,000  Level FlightAware
12:08AM 40.9100 -82.8550 123° Southeast 483 556 41,000  Level FlightAware
12:08AM 40.8550 -82.7480 124° Southeast 483 556 41,000  Level FlightAware
12:09AM 40.8000 -82.6400 124° Southeast 483 556 41,000  Level FlightAware
12:10AM 40.7510 -82.5440 124° Southeast 483 556 41,000  Level FlightAware
12:11AM 40.6960 -82.4360 124° Southeast 481 554 41,000  Level FlightAware
12:11AM 40.6450 -82.3390 125° Southeast 479 551 41,000  Level FlightAware
12:12AM 40.5950 -82.2410 124° Southeast 478 550 41,000  Level FlightAware
12:13AM 40.5380 -82.1320 125° Southeast 477 549 41,000  Level FlightAware
12:13AM 40.4890 -82.0380 124° Southeast 475 547 41,000  Level FlightAware
12:14AM 40.4340 -81.9330 125° Southeast 473 544 41,000  Level FlightAware
12:15AM 40.3830 -81.8350 124° Southeast 470 541 41,000  Level FlightAware
12:15AM 40.3340 -81.7420 125° Southeast 468 539 41,000  Level FlightAware
12:16AM 40.2790 -81.6370 124° Southeast 465 535 41,000  Level FlightAware
12:17AM 40.2300 -81.5450 125° Southeast 465 535 41,000  Level FlightAware
12:18AM 40.1760 -81.4440 125° Southeast 464 534 41,000  Level FlightAware
12:18AM 40.1320 -81.3460 120° Southeast 463 533 41,000  Level FlightAware
12:19AM 40.0930 -81.2490 118° Southeast 462 532 41,000  Level FlightAware
12:20AM 40.0480 -81.1380 118° Southeast 463 533 41,000  Level FlightAware
12:20AM 40.0070 -81.0380 118° Southeast 464 534 41,000  Level FlightAware
12:21AM 39.9720 -80.9530 118° Southeast 464 534 41,000 -420 Level FlightAware
12:21AM 39.9410 -80.8760 118° Southeast 466 536 40,600 -960 Descending FlightAware
12:22AM 39.9030 -80.7820 118° Southeast 466 536 39,900 -1,020 Descending FlightAware
12:23AM 39.8610 -80.6830 119° Southeast 465 535 39,300 -1,020 Descending FlightAware
12:24AM 39.8140 -80.5680 118° Southeast 468 539 38,500 -720 Descending FlightAware
12:24AM 39.7760 -80.4770 118° Southeast 468 539 38,300 -1,200 Descending FlightAware
12:25AM 39.7300 -80.3680 119° Southeast 475 547 36,800 -1,800 Descending FlightAware
12:26AM 39.6880 -80.2680 119° Southeast 467 537 35,800 -1,200 Descending FlightAware
12:26AM 39.6470 -80.1710 119° Southeast 459 528 35,200 -600 Descending FlightAware
12:27AM 39.6020 -80.0650 119° Southeast 462 532 35,000 -180 Descending FlightAware
12:28AM 39.5610 -79.9670 118° Southeast 465 535 35,000 -480 Level FlightAware
12:28AM 39.5180 -79.8670 119° Southeast 462 532 34,400 -960 Descending FlightAware
12:29AM 39.4730 -79.7620 119° Southeast 468 539 33,700 -1,020 Descending FlightAware
12:30AM 39.4310 -79.6630 119° Southeast 481 554 33,000 -1,020 Descending FlightAware
12:31AM 39.3820 -79.5480 119° Southeast 491 565 32,300 -1,140 Descending FlightAware
12:31AM 39.3370 -79.4420 119° Southeast 486 559 31,400 -2,040 Descending FlightAware
12:32AM 39.2930 -79.3430 120° Southeast 474 545 29,600 -2,400 Descending FlightAware
12:33AM 39.2500 -79.2310 116° Southeast 452 520 28,000 -2,160 Descending FlightAware
12:33AM 39.2370 -79.1280 99° East 430 495 26,600 -2,220 Descending FlightAware
12:34AM 39.2290 -79.0300 96° East 411 473 25,100 -2,580 Descending FlightAware
12:35AM 39.2190 -78.9260 97° East 405 466 23,000 -2,280 Descending FlightAware
12:35AM 39.2080 -78.8290 98° East 402 463 21,900 -1,560 Descending FlightAware
12:36AM 39.1940 -78.7210 99° East 399 459 20,800 -1,440 Descending FlightAware
12:37AM 39.1830 -78.6330 99° East 389 448 19,900 -1,380 Descending FlightAware
12:37AM 39.1710 -78.5380 99° East 384 442 19,000 -1,380 Descending FlightAware
12:38AM 39.1580 -78.4370 99° East 376 433 18,000 -1,380 Descending FlightAware
12:39AM 39.1470 -78.3490 99° East 374 430 17,100 -1,380 Descending FlightAware
12:40AM 39.1340 -78.2510 100° East 365 420 16,100 -1,380 Descending FlightAware
12:40AM 39.1150 -78.1690 107° East 365 420 15,200 -1,320 Descending FlightAware
12:41AM 39.0930 -78.0790 107° East 354 407 14,300 -1,320 Descending FlightAware
12:42AM 39.0720 -77.9970 108° East 349 402 13,400 -1,320 Descending FlightAware
12:42AM 39.0510 -77.9180 109° East 345 397 12,600 -1,200 Descending FlightAware
12:43AM 39.0300 -77.8330 108° East 330 380 11,700 -1,140 Descending FlightAware
12:44AM 39.0110 -77.7590 108° East 324 373 11,000 -960 Descending FlightAware
12:45AM 38.9900 -77.6800 109° East 303 349 10,400 -900 Descending FlightAware
12:45AM 38.9720 -77.6140 109° East 288 331 9,800 -900 Descending FlightAware
12:46AM 38.9570 -77.5660 112° Southeast 272 313 9,400 -780 Descending FlightAware
12:46AM 38.9470 -77.5300 110° East 256 295 9,100 -900 Descending FlightAware
12:46AM 38.9460 -77.5150 95° East 250 288 8,900 -1,200 Descending FlightAware
12:47AM 38.9520 -77.4890 73° East 241 277 8,500 -1,200 Descending FlightAware
12:47AM 38.9630 -77.4550 67° East 240 276 8,000 -1,320 Descending FlightAware
12:48AM 38.9750 -77.4200 66° East 235 270 7,300 -1,380 Descending FlightAware
12:48AM 38.9830 -77.3980 65° Northeast 233 268 7,000 -1,500 Descending FlightAware
12:48AM 38.9930 -77.3680 67° East 230 265 6,300 -1,860 Descending FlightAware
12:49AM 39.0050 -77.3300 68° East 227 261 5,300 -2,100 Descending FlightAware
12:49AM 39.0160 -77.2980 66° East 226 260 4,400 -1,980 Descending FlightAware
12:49AM 39.0210 -77.2790 71° East 221 254 4,000 -960 Descending FlightAware
12:50AM 39.0090 -77.2500 118° Southeast 187 215 3,700 -540 Descending FlightAware
12:50AM 39.0000 -77.2350 128° Southeast 176 203 3,600 -600 Descending FlightAware
12:51AM 38.9890 -77.2140 124° Southeast 166 191 3,300 -600 Descending FlightAware
12:51AM 38.9760 -77.1900 125° Southeast 162 186 3,100 -540 Descending FlightAware
12:52AM 38.9620 -77.1680 129° Southeast 163 188 2,800 -780 Descending FlightAware
12:52AM 38.9570 -77.1620 137° Southeast 162 186 2,600 -780 Descending FlightAware
12:52AM 38.9410 -77.1400 133° Southeast 158 182 2,300 -840 Descending FlightAware
12:53AM 38.9270 -77.1210 133° Southeast 148 170 1,800 -900 Descending FlightAware
12:53AM 38.9150 -77.1060 136° Southeast 141 162 1,500 -660 Descending FlightAware
12:54AM 38.9050 -77.0850 121° Southeast 133 153 1,200 -660 Descending FlightAware
12:54AM 38.8970 -77.0680 121° Southeast 131 151 900 -660 Descending FlightAware
12:55AM 38.8830 -77.0490 133° Southeast 128 147 500 -420 Descending FlightAware
12:55AM 38.8740 -77.0350 130° Southeast 128 147 500  Level FlightAware